createdAt,value
2022-10-10T00:01:37.374Z,98271.41
2022-10-10T00:04:07.308Z,98271.63
2022-10-10T00:06:36.064Z,98268.81
2022-10-10T00:09:05.504Z,98265.97
2022-10-10T00:11:34.526Z,98265.00
2022-10-10T00:14:04.424Z,98267.66
2022-10-10T00:16:32.889Z,98269.47
2022-10-10T00:19:01.293Z,98263.00
2022-10-10T00:21:29.803Z,98262.16
2022-10-10T00:23:58.144Z,98257.88
2022-10-10T00:26:26.615Z,98258.63
2022-10-10T00:28:54.889Z,98249.13
2022-10-10T00:31:24.549Z,98251.69
2022-10-10T00:33:53.000Z,98243.03
2022-10-10T00:36:21.534Z,98249.00
2022-10-10T00:38:50.079Z,98246.84
2022-10-10T00:41:18.572Z,98247.50
2022-10-10T00:44:02.661Z,98257.13
2022-10-10T00:46:32.525Z,98246.97
2022-10-10T00:49:00.989Z,98247.00
2022-10-10T00:51:29.317Z,98250.53
2022-10-10T00:54:00.012Z,98238.44
2022-10-10T00:56:31.040Z,98240.09
2022-10-10T00:59:03.241Z,98242.56
2022-10-10T01:01:33.011Z,98229.88
2022-10-10T01:04:03.103Z,98239.47
2022-10-10T01:06:31.399Z,98238.16
2022-10-10T01:08:59.848Z,98240.72
2022-10-10T01:11:42.255Z,98237.34
2022-10-10T01:14:18.035Z,98248.66
2022-10-10T01:16:51.732Z,98242.91
2022-10-10T01:19:38.123Z,98248.09
2022-10-10T01:22:13.781Z,98246.50
2022-10-10T01:24:55.695Z,98235.19
2022-10-10T01:27:31.642Z,98234.22
2022-10-10T01:30:07.007Z,98236.66
2022-10-10T01:32:40.546Z,98226.41
2022-10-10T01:35:16.318Z,98226.31
2022-10-10T01:37:50.014Z,98231.75
2022-10-10T01:40:26.277Z,98223.97
2022-10-10T01:42:57.029Z,98222.28
2022-10-10T01:45:27.613Z,98226.44
2022-10-10T01:47:57.548Z,98225.69
2022-10-10T01:50:28.071Z,98222.19
2022-10-10T01:53:06.040Z,98219.50
2022-10-10T01:55:50.229Z,98221.25
2022-10-10T01:58:28.774Z,98220.50
2022-10-10T02:01:02.695Z,98223.91
2022-10-10T02:03:33.009Z,98225.66
2022-10-10T02:06:04.015Z,98218.00
2022-10-10T02:08:35.042Z,98222.34
2022-10-10T02:11:06.888Z,98210.19
2022-10-10T02:13:43.737Z,98219.53
2022-10-10T02:16:17.928Z,98218.63
2022-10-10T02:18:47.114Z,98212.56
2022-10-10T02:21:16.530Z,98216.97
2022-10-10T02:23:48.385Z,98215.34
2022-10-10T02:26:19.240Z,98219.63
2022-10-10T02:28:52.971Z,98213.69
2022-10-10T02:31:26.551Z,98215.41
2022-10-10T02:33:58.051Z,98209.44
2022-10-10T02:36:26.850Z,98209.38
2022-10-10T02:38:56.405Z,98206.09
2022-10-10T02:41:26.476Z,98211.22
2022-10-10T02:43:54.784Z,98215.59
2022-10-10T02:46:24.908Z,98195.03
2022-10-10T02:48:53.305Z,98203.69
2022-10-10T02:51:21.674Z,98197.69
2022-10-10T02:53:50.065Z,98195.03
2022-10-10T02:56:18.652Z,98203.69
2022-10-10T02:58:47.108Z,98195.91
2022-10-10T03:01:15.678Z,98199.31
2022-10-10T03:03:45.545Z,98198.44
2022-10-10T03:06:13.963Z,98195.09
2022-10-10T03:08:42.373Z,98200.19
2022-10-10T03:11:10.759Z,98195.16
2022-10-10T03:13:39.130Z,98198.59
2022-10-10T03:16:07.965Z,98195.00
2022-10-10T03:18:36.348Z,98191.63
2022-10-10T03:21:06.410Z,98197.88
2022-10-10T03:23:35.593Z,98190.13
2022-10-10T03:26:04.410Z,98192.72
2022-10-10T03:28:32.876Z,98181.66
2022-10-10T03:31:01.307Z,98184.25
2022-10-10T03:33:29.689Z,98178.81
2022-10-10T03:35:58.097Z,98182.09
2022-10-10T03:38:27.895Z,98192.59
2022-10-10T03:40:56.220Z,98192.78
2022-10-10T03:43:24.523Z,98190.03
2022-10-10T03:45:52.735Z,98185.69
2022-10-10T03:48:21.012Z,98189.84
2022-10-10T03:50:49.230Z,98191.59
2022-10-10T03:53:17.585Z,98188.22
2022-10-10T03:55:47.592Z,98182.28
2022-10-10T03:58:19.014Z,98181.53
2022-10-10T04:00:55.893Z,98181.44
2022-10-10T04:03:24.350Z,98179.03
2022-10-10T04:05:53.737Z,98170.50
2022-10-10T04:08:22.362Z,98171.41
2022-10-10T04:10:52.812Z,98168.78
2022-10-10T04:13:22.239Z,98163.75
2022-10-10T04:15:51.675Z,98161.25
2022-10-10T04:18:20.031Z,98157.78
2022-10-10T04:20:48.420Z,98153.34
2022-10-10T04:23:16.925Z,98160.94
2022-10-10T04:25:45.568Z,98157.44
2022-10-10T04:28:16.304Z,98157.50
2022-10-10T04:30:45.389Z,98163.53
2022-10-10T04:33:13.863Z,98164.28
2022-10-10T04:35:42.288Z,98159.31
2022-10-10T04:38:10.561Z,98176.34
2022-10-10T04:40:39.104Z,98167.63
2022-10-10T04:43:09.387Z,98174.53
2022-10-10T04:45:39.076Z,98180.66
2022-10-10T04:48:07.355Z,98172.19
2022-10-10T04:50:35.892Z,98180.72
2022-10-10T04:53:04.422Z,98172.94
2022-10-10T04:55:32.825Z,98183.28
2022-10-10T04:58:01.269Z,98169.63
2022-10-10T05:00:29.882Z,98165.28
2022-10-10T05:02:59.741Z,98160.19
2022-10-10T05:05:28.266Z,98163.66
2022-10-10T05:07:56.504Z,98162.69
2022-10-10T05:10:25.059Z,98159.31
2022-10-10T05:12:53.944Z,98171.34
2022-10-10T05:15:24.902Z,98168.81
2022-10-10T05:17:54.742Z,98161.84
2022-10-10T05:20:24.495Z,98175.50
2022-10-10T05:22:53.001Z,98166.03
2022-10-10T05:25:21.565Z,98171.28
2022-10-10T05:27:50.054Z,98175.50
2022-10-10T05:30:18.524Z,98180.56
2022-10-10T05:32:46.914Z,98176.25
2022-10-10T05:35:15.313Z,98181.41
2022-10-10T05:37:45.155Z,98189.16
2022-10-10T05:40:13.463Z,98175.50
2022-10-10T05:42:41.792Z,98169.66
2022-10-10T05:45:11.023Z,98165.41
2022-10-10T05:47:39.650Z,98168.84
2022-10-10T05:50:09.990Z,98171.47
2022-10-10T05:52:38.291Z,98170.50
2022-10-10T05:55:09.062Z,98179.03
2022-10-10T05:57:37.496Z,98177.44
2022-10-10T06:00:06.742Z,98177.44
2022-10-10T06:02:36.528Z,98178.34
2022-10-10T06:05:05.303Z,98184.44
2022-10-10T06:07:52.339Z,98188.06
2022-10-10T06:10:23.363Z,98182.88
2022-10-10T06:12:51.917Z,98172.56
2022-10-10T06:15:20.438Z,98182.94
2022-10-10T06:17:48.754Z,98183.75
2022-10-10T06:20:17.309Z,98178.66
2022-10-10T06:22:45.801Z,98186.41
2022-10-10T06:25:35.396Z,98176.13
2022-10-10T06:28:05.111Z,98179.63
2022-10-10T06:30:34.896Z,98177.91
2022-10-10T06:33:03.596Z,98177.91
2022-10-10T06:35:32.091Z,98186.53
2022-10-10T06:38:00.872Z,98178.00
2022-10-10T06:40:30.807Z,98179.72
2022-10-10T06:43:01.241Z,98186.56
2022-10-10T06:45:31.167Z,98179.66
2022-10-10T06:47:59.900Z,98183.09
2022-10-10T06:50:28.267Z,98190.88
2022-10-10T06:52:56.881Z,98184.91
2022-10-10T06:55:27.821Z,98178.03
2022-10-10T06:57:56.359Z,98173.72
2022-10-10T07:00:24.959Z,98170.34
2022-10-10T07:02:55.014Z,98166.00
2022-10-10T07:05:23.351Z,98172.06
2022-10-10T07:07:57.271Z,98172.06
2022-10-10T07:10:26.047Z,98169.44
2022-10-10T07:12:54.933Z,98170.31
2022-10-10T07:15:23.548Z,98171.16
2022-10-10T07:17:59.687Z,98173.75
2022-10-10T07:20:28.714Z,98172.00
2022-10-10T07:22:58.343Z,98171.13
2022-10-10T07:25:27.199Z,98169.38
2022-10-10T07:27:57.104Z,98173.69
2022-10-10T07:30:25.787Z,98170.22
2022-10-10T07:32:55.275Z,98166.66
2022-10-10T07:35:27.587Z,98166.66
2022-10-10T07:37:56.830Z,98167.53
2022-10-10T07:40:25.516Z,98176.91
2022-10-10T07:42:54.151Z,98170.78
2022-10-10T07:45:22.627Z,98175.25
2022-10-10T07:47:51.171Z,98176.16
2022-10-10T07:50:19.877Z,98174.28
2022-10-10T07:52:50.764Z,98177.63
2022-10-10T07:55:19.498Z,98171.50
2022-10-10T07:57:53.101Z,98169.75
2022-10-10T08:00:21.963Z,98165.44
2022-10-10T08:02:52.259Z,98170.47
2022-10-10T08:05:20.813Z,98173.19
2022-10-10T08:07:51.343Z,98171.97
2022-10-10T08:10:20.001Z,98165.84
2022-10-10T08:12:48.434Z,98161.53
2022-10-10T08:15:19.335Z,98163.97
2022-10-10T08:17:47.860Z,98160.09
2022-10-10T08:20:16.841Z,98156.38
2022-10-10T08:22:45.221Z,98149.22
2022-10-10T08:25:15.069Z,98141.59
2022-10-10T08:27:49.528Z,98137.22
2022-10-10T08:30:40.614Z,98148.28
2022-10-10T08:33:11.984Z,98142.38
2022-10-10T08:35:41.411Z,98137.75
2022-10-10T08:38:10.187Z,98137.53
2022-10-10T08:40:45.895Z,98137.25
2022-10-10T08:43:21.758Z,98141.47
2022-10-10T08:45:50.928Z,98137.88
2022-10-10T08:48:24.681Z,98133.09
2022-10-10T08:50:59.703Z,98130.69
2022-10-10T08:53:32.239Z,98129.50
2022-10-10T08:56:03.226Z,98119.81
2022-10-10T08:58:37.277Z,98130.13
2022-10-10T09:01:08.857Z,98121.03
2022-10-10T09:03:43.073Z,98129.94
2022-10-10T09:06:25.812Z,98117.97
2022-10-10T09:09:01.118Z,98120.81
2022-10-10T09:11:42.617Z,98122.09
2022-10-10T09:14:25.410Z,98110.63
2022-10-10T09:17:05.250Z,98119.41
2022-10-10T09:19:42.894Z,98119.03
2022-10-10T09:22:14.994Z,98119.22
2022-10-10T09:24:46.977Z,98109.38
2022-10-10T09:27:18.862Z,98102.50
2022-10-10T09:29:50.788Z,98103.72
2022-10-10T09:32:22.396Z,98103.44
2022-10-10T09:34:52.509Z,98099.19
2022-10-10T09:37:45.839Z,98093.88
2022-10-10T09:40:21.569Z,98089.13
2022-10-10T09:42:51.777Z,98091.31
2022-10-10T09:45:24.202Z,98085.03
2022-10-10T09:47:54.848Z,98089.69
2022-10-10T09:50:24.451Z,98087.47
2022-10-10T09:52:53.741Z,98082.53
2022-10-10T09:55:27.685Z,98077.09
2022-10-10T09:57:59.924Z,98079.41
2022-10-10T10:00:36.823Z,98078.31
2022-10-10T10:03:11.240Z,98073.44
2022-10-10T10:05:40.359Z,98075.41
2022-10-10T10:08:20.414Z,98067.09
2022-10-10T10:10:49.099Z,98064.34
2022-10-10T10:13:23.010Z,98068.25
2022-10-10T10:15:56.632Z,98064.84
2022-10-10T10:18:29.555Z,98056.78
2022-10-10T10:21:18.181Z,98051.28
2022-10-10T10:23:53.800Z,98050.56
2022-10-10T10:26:24.468Z,98045.16
2022-10-10T10:28:56.140Z,98048.94
2022-10-10T10:31:48.597Z,98050.78
2022-10-10T10:34:32.842Z,98040.81
2022-10-10T10:37:13.928Z,98044.91
2022-10-10T10:39:48.719Z,98032.94
2022-10-10T10:42:27.703Z,98030.66
2022-10-10T10:45:04.125Z,98034.91
2022-10-10T10:47:43.580Z,98025.44
2022-10-10T10:50:28.423Z,98034.31
2022-10-10T10:53:01.646Z,98023.22
2022-10-10T10:55:39.394Z,98023.75
2022-10-10T10:59:10.391Z,98020.91
2022-10-10T11:01:51.701Z,98020.22
2022-10-10T11:05:23.730Z,98019.44
2022-10-10T11:07:20.009Z,98012.69
2022-10-10T11:09:55.621Z,98006.66
2022-10-10T11:12:38.630Z,98004.94
2022-10-10T11:15:16.207Z,97999.97
2022-10-10T11:17:49.512Z,97999.53
2022-10-10T11:20:22.962Z,97998.25
2022-10-10T11:22:53.656Z,97996.19
2022-10-10T11:25:25.273Z,97993.22
2022-10-10T11:27:58.981Z,97974.50
2022-10-10T11:30:29.068Z,97967.00
2022-10-10T11:33:02.882Z,97974.16
2022-10-10T11:35:44.997Z,97971.78
2022-10-10T11:38:21.010Z,97968.44
2022-10-10T11:40:58.076Z,97966.59
2022-10-10T11:43:42.170Z,97968.84
2022-10-10T11:46:17.904Z,97959.94
2022-10-10T11:48:54.114Z,97957.03
2022-10-10T11:51:35.995Z,97955.94
2022-10-10T11:54:08.207Z,97958.97
2022-10-10T11:56:41.351Z,97958.47
2022-10-10T11:59:16.354Z,97957.66
2022-10-10T12:01:48.799Z,97957.97
2022-10-10T12:04:19.064Z,97936.75
2022-10-10T12:06:50.996Z,97938.75
2022-10-10T12:09:24.762Z,97945.28
2022-10-10T12:11:56.851Z,97943.28
2022-10-10T12:14:27.965Z,97943.69
2022-10-10T12:16:57.385Z,97945.09
2022-10-10T12:19:28.851Z,97936.34
2022-10-10T12:22:01.934Z,97928.50
2022-10-10T12:24:32.036Z,97930.63
2022-10-10T12:27:29.808Z,97913.16
2022-10-10T12:30:30.695Z,97911.88
2022-10-10T12:32:59.140Z,97910.84
2022-10-10T12:35:47.047Z,97912.22
2022-10-10T12:38:23.769Z,97907.41
2022-10-10T12:41:11.109Z,97892.88
2022-10-10T12:43:42.927Z,97888.78
2022-10-10T12:46:26.529Z,97903.44
2022-10-10T12:49:01.159Z,97893.16
2022-10-10T12:51:32.366Z,97883.16
2022-10-10T12:54:03.201Z,97889.78
2022-10-10T12:56:40.964Z,97884.06
2022-10-10T12:59:19.988Z,97890.06
2022-10-10T13:01:55.535Z,97883.50
2022-10-10T13:04:25.044Z,97877.88
2022-10-10T13:06:56.808Z,97878.56
2022-10-10T13:09:31.089Z,97872.81
2022-10-10T13:12:04.138Z,97867.41
2022-10-10T13:14:40.087Z,97863.00
2022-10-10T13:17:27.246Z,97860.91
2022-10-10T13:19:56.873Z,97859.94
2022-10-10T13:22:27.853Z,97856.28
2022-10-10T13:24:56.473Z,97862.13
2022-10-10T13:27:27.168Z,97857.06
2022-10-10T13:29:56.392Z,97852.88
2022-10-10T13:32:28.047Z,97864.47
2022-10-10T13:34:58.735Z,97859.00
2022-10-10T13:37:31.845Z,97855.22
2022-10-10T13:40:00.485Z,97849.69
2022-10-10T13:42:35.325Z,97848.91
2022-10-10T13:45:34.938Z,97850.66
2022-10-10T13:48:22.306Z,97844.09
2022-10-10T13:51:11.822Z,97846.63
2022-10-10T13:53:51.438Z,97841.75
2022-10-10T13:56:27.007Z,97843.28
2022-10-10T13:58:57.438Z,97851.78
2022-10-10T14:01:32.316Z,97841.22
2022-10-10T14:04:04.734Z,97837.88
2022-10-10T14:06:34.863Z,97837.50
2022-10-10T14:09:13.761Z,97838.13
2022-10-10T14:11:43.199Z,97832.94
2022-10-10T14:14:17.989Z,97828.78
2022-10-10T14:16:46.509Z,97833.47
2022-10-10T14:19:18.530Z,97835.25
2022-10-10T14:21:46.963Z,97835.91
2022-10-10T14:24:16.872Z,97830.69
2022-10-10T14:26:45.371Z,97826.00
2022-10-10T14:29:14.983Z,97822.66
2022-10-10T14:31:43.514Z,97831.44
2022-10-10T14:34:12.867Z,97837.50
2022-10-10T14:36:46.125Z,97839.81
2022-10-10T14:39:16.767Z,97835.38
2022-10-10T14:41:45.432Z,97832.19
2022-10-10T14:44:14.080Z,97828.63
2022-10-10T14:46:43.132Z,97831.69
2022-10-10T14:49:17.810Z,97824.38
2022-10-10T14:51:46.340Z,97837.19
2022-10-10T14:54:16.764Z,97839.38
2022-10-10T14:57:09.372Z,97825.88
2022-10-10T14:59:49.374Z,97837.22
2022-10-10T15:02:20.474Z,97841.22
2022-10-10T15:04:48.982Z,97835.47
2022-10-10T15:07:17.881Z,97837.63
2022-10-10T15:12:39.009Z,97830.44
2022-10-10T15:15:08.900Z,97833.00
2022-10-10T15:17:37.562Z,97828.22
2022-10-10T15:20:07.689Z,97840.00
2022-10-10T15:22:36.568Z,97844.47
2022-10-10T15:25:07.321Z,97842.72
2022-10-10T15:27:35.919Z,97840.03
2022-10-10T15:30:04.945Z,97844.09
2022-10-10T15:32:33.414Z,97844.13
2022-10-10T15:35:01.756Z,97852.03
2022-10-10T15:37:30.363Z,97851.81
2022-10-10T15:39:58.942Z,97855.19
2022-10-10T15:42:29.677Z,97863.63
2022-10-10T15:45:00.741Z,97862.72
2022-10-10T15:47:29.379Z,97850.59
2022-10-10T15:49:58.313Z,97859.75
2022-10-10T15:52:27.486Z,97857.47
2022-10-10T15:54:56.132Z,97865.72
2022-10-10T15:57:24.832Z,97859.72
2022-10-10T15:59:54.627Z,97856.28
2022-10-10T16:02:23.029Z,97859.81
2022-10-10T16:04:51.442Z,97866.41
2022-10-10T16:07:28.981Z,97863.81
2022-10-10T16:10:01.392Z,97862.06
2022-10-10T16:12:29.948Z,97859.56
2022-10-10T16:15:02.326Z,97863.63
2022-10-10T16:17:34.901Z,97870.53
2022-10-10T16:20:03.720Z,97867.19
2022-10-10T16:22:32.443Z,97867.28
2022-10-10T16:25:22.351Z,97863.09
2022-10-10T16:27:54.134Z,97860.59
2022-10-10T16:30:26.117Z,97870.44
2022-10-10T16:32:54.701Z,97875.69
2022-10-10T16:35:23.439Z,97876.66
2022-10-10T16:37:53.470Z,97874.91
2022-10-10T16:40:33.866Z,97872.47
2022-10-10T16:43:19.838Z,97866.53
2022-10-10T16:45:49.830Z,97878.72
2022-10-10T16:48:18.336Z,97884.78
2022-10-10T16:50:46.940Z,97891.69
2022-10-10T16:53:15.507Z,97889.94
2022-10-10T16:55:44.097Z,97891.78
2022-10-10T16:58:14.891Z,97897.94
2022-10-10T17:00:44.086Z,97896.25
2022-10-10T17:03:14.097Z,97888.44
2022-10-10T17:05:43.448Z,97894.56
2022-10-10T17:08:12.016Z,97892.03
2022-10-10T17:10:44.240Z,97905.03
2022-10-10T17:13:12.797Z,97905.75
2022-10-10T17:15:43.752Z,97897.97
2022-10-10T17:18:19.406Z,97906.81
2022-10-10T17:20:50.758Z,97908.63
2022-10-10T17:23:21.950Z,97903.28
2022-10-10T17:25:59.080Z,97903.16
2022-10-10T17:28:27.680Z,97911.09
2022-10-10T17:30:56.109Z,97913.81
2022-10-10T17:33:26.067Z,97921.72
2022-10-10T17:38:48.458Z,97929.63
2022-10-10T17:41:21.459Z,97928.88
2022-10-10T17:43:50.271Z,97925.41
2022-10-10T17:46:34.321Z,97932.50
2022-10-10T17:49:05.366Z,97932.38
2022-10-10T17:51:35.169Z,97932.47
2022-10-10T17:54:04.498Z,97939.59
2022-10-10T17:56:33.253Z,97945.69
2022-10-10T17:59:02.500Z,97943.09
2022-10-10T18:01:31.834Z,97944.84
2022-10-10T18:04:00.652Z,97952.47
2022-10-10T18:06:30.982Z,97949.91
2022-10-10T18:09:02.698Z,97951.03
2022-10-10T18:11:32.234Z,97955.31
2022-10-10T18:14:01.462Z,97951.03
2022-10-10T18:16:32.470Z,97952.88
2022-10-10T18:19:01.774Z,97952.97
2022-10-10T18:21:32.488Z,97962.44
2022-10-10T18:24:02.480Z,97960.66
2022-10-10T18:26:33.916Z,97959.81
2022-10-10T18:29:04.391Z,97968.38
2022-10-10T18:31:41.654Z,97961.47
2022-10-10T18:34:11.976Z,97961.44
2022-10-10T18:36:42.462Z,97958.91
2022-10-10T18:39:14.758Z,97959.84
2022-10-10T18:41:45.810Z,97965.09
2022-10-10T18:44:20.277Z,97969.41
2022-10-10T18:46:56.186Z,97966.88
2022-10-10T18:49:25.243Z,97974.59
2022-10-10T18:51:55.994Z,97965.13
2022-10-10T18:54:28.168Z,97968.50
2022-10-10T18:57:02.496Z,97971.06
2022-10-10T18:59:36.191Z,97968.50
2022-10-10T19:02:13.191Z,97960.66
2022-10-10T19:04:42.076Z,97957.13
2022-10-10T19:07:21.042Z,97954.72
2022-10-10T19:09:52.769Z,97962.41
2022-10-10T19:12:22.530Z,97969.34
2022-10-10T19:14:52.568Z,97957.34
2022-10-10T19:17:23.929Z,97955.75
2022-10-10T19:19:53.939Z,97960.09
2022-10-10T19:22:33.841Z,97954.88
2022-10-10T19:25:35.478Z,97954.97
2022-10-10T19:28:18.950Z,97964.56
2022-10-10T19:30:52.033Z,97970.66
2022-10-10T19:33:28.540Z,97969.84
2022-10-10T19:35:58.865Z,97973.34
2022-10-10T19:38:33.604Z,97981.03
2022-10-10T19:41:06.555Z,97980.22
2022-10-10T19:43:39.358Z,97982.81
2022-10-10T19:46:10.149Z,97972.47
2022-10-10T19:48:41.312Z,97979.34
2022-10-10T19:51:13.306Z,97974.13
2022-10-10T19:53:45.411Z,97980.16
2022-10-10T19:56:20.745Z,97973.22
2022-10-10T19:58:49.175Z,97969.75
2022-10-10T20:01:20.074Z,97980.22
2022-10-10T20:03:50.994Z,97977.66
2022-10-10T20:06:22.813Z,97976.72
2022-10-10T20:08:57.136Z,97979.28
2022-10-10T20:11:27.139Z,97974.03
2022-10-10T20:13:57.732Z,97967.91
2022-10-10T20:16:30.166Z,97969.69
2022-10-10T20:19:05.001Z,97974.06
2022-10-10T20:21:35.661Z,97981.94
2022-10-10T20:24:08.028Z,97991.53
2022-10-10T20:26:37.725Z,97997.56
2022-10-10T20:29:08.121Z,97995.84
2022-10-10T20:31:37.576Z,97992.41
2022-10-10T20:34:10.499Z,97998.41
2022-10-10T20:36:39.878Z,97999.28
2022-10-10T20:39:13.916Z,97994.06
2022-10-10T20:41:45.746Z,97997.50
2022-10-10T20:44:15.568Z,97994.91
2022-10-10T20:46:45.512Z,98001.00
2022-10-10T20:49:15.846Z,97996.72
2022-10-10T20:51:48.653Z,97993.25
2022-10-10T20:54:22.815Z,97996.72
2022-10-10T20:56:51.576Z,97992.41
2022-10-10T20:59:21.174Z,98000.16
2022-10-10T21:01:49.738Z,98009.63
2022-10-10T21:04:22.818Z,98007.91
2022-10-10T21:06:51.359Z,98005.34
2022-10-10T21:09:21.186Z,98006.22
2022-10-10T21:11:51.202Z,98009.66
2022-10-10T21:14:19.693Z,98013.97
2022-10-10T21:16:50.504Z,98015.69
2022-10-10T21:19:19.313Z,98010.50
2022-10-10T21:21:48.444Z,98007.06
2022-10-10T21:24:18.919Z,98007.94
2022-10-10T21:26:51.382Z,98002.75
2022-10-10T21:29:19.883Z,97996.69
2022-10-10T21:31:48.720Z,98001.00
2022-10-10T21:34:21.472Z,97994.09
2022-10-10T21:36:53.962Z,98001.88
2022-10-10T21:39:26.679Z,98007.03
2022-10-10T21:42:00.362Z,98010.50
2022-10-10T21:44:31.520Z,98007.03
2022-10-10T21:47:02.777Z,98009.59
2022-10-10T21:49:31.494Z,98010.47
2022-10-10T21:52:02.324Z,98006.16
2022-10-10T21:54:31.071Z,98009.59
2022-10-10T21:57:09.993Z,98011.25
2022-10-10T21:59:41.240Z,98011.25
2022-10-10T22:02:09.856Z,98008.69
2022-10-10T22:04:38.619Z,98006.13
2022-10-10T22:07:09.540Z,98007.81
2022-10-10T22:09:40.607Z,98011.25
2022-10-10T22:12:16.052Z,98010.41
2022-10-10T22:14:44.837Z,98009.56
2022-10-10T22:17:13.508Z,98011.28
2022-10-10T22:19:42.228Z,98000.00
2022-10-10T22:22:10.888Z,98004.34
2022-10-10T22:24:39.472Z,98007.78
2022-10-10T22:27:08.112Z,98000.00
2022-10-10T22:29:40.611Z,98003.47
2022-10-10T22:32:09.820Z,97997.50
2022-10-10T22:34:38.613Z,98000.09
2022-10-10T22:37:08.429Z,97994.88
2022-10-10T22:39:37.111Z,97982.81
2022-10-10T22:42:08.963Z,97986.22
2022-10-10T22:44:39.053Z,97988.75
2022-10-10T22:47:07.543Z,97992.19
2022-10-10T22:49:38.120Z,97992.91
2022-10-10T22:52:07.109Z,97994.66
2022-10-10T22:54:38.169Z,97988.63
2022-10-10T22:57:06.869Z,97986.09
2022-10-10T22:59:35.460Z,97982.69
2022-10-10T23:02:05.515Z,97981.06
2022-10-10T23:04:34.090Z,97990.50
2022-10-10T23:07:02.819Z,97975.03
2022-10-10T23:09:31.478Z,97967.34
2022-10-10T23:12:02.218Z,97972.50
2022-10-10T23:14:33.348Z,97971.59
2022-10-10T23:17:05.806Z,97967.25
2022-10-10T23:19:34.408Z,97962.09
2022-10-10T23:22:06.783Z,97970.69
2022-10-10T23:24:36.188Z,97966.34
2022-10-10T23:27:05.027Z,97968.03
2022-10-10T23:29:45.404Z,97970.63
2022-10-10T23:32:15.486Z,97956.00
2022-10-10T23:34:44.085Z,97967.19
2022-10-10T23:37:12.750Z,97959.47
2022-10-10T23:39:47.111Z,97961.22
2022-10-10T23:42:17.613Z,97968.97
2022-10-10T23:44:51.680Z,97957.78
2022-10-10T23:47:27.138Z,97963.81
2022-10-10T23:49:55.767Z,97971.56
2022-10-10T23:52:24.544Z,97966.41
2022-10-10T23:54:55.146Z,97955.22
2022-10-10T23:57:27.355Z,97956.94
2022-10-10T23:59:56.947Z,97955.19
